赏金猎人系列

赏金猎人
系列

7 月 7 日至 7 月 29 日

总计 5000 万美元 GTD

最大赏金
夏日最大赏金系列

神秘悬赏主赛事

400 万美元GTD 奖金池。
将赢取 10 个 10 万美元悬赏金

100 万美元悬赏排行榜

每天 4 万美元
你 KO 的越多
你的赏金团就越大!

这只是公事,与个人无关

重点活动

108 美元神秘赏金
主赛事, 400 万美元 GTD


十项 10 万美元神秘悬赏活动,打破纪录

25 美元神秘赏金
迷你主赛,总奖金 200 万美元


您能得到的最大实惠

50 美元全球百万美元
赏金版,100 万美元 GTD

赏金特别版
全球最受欢迎的锦标赛

赏金猎人》系列周日特别版

所有最大的赏金锦标赛
都会进入赏金王
排行榜!

100 万美元赏金王排行榜

获得最多击倒,成为赏金王。
每天奖金超过 4 万美元

赏金王

07/07
Gandalfsen$1,500
07/08
Markus Prinz$1,500
07/09
Survivor39$1,500
07/10
Markus Prinz$1,500
07/11
Markus Prinz$1,500
07/12
Markus Prinz$1,500
07/13
Zhenghao Yan_ $1,500
07/14
Markus Prinz$1,500
07/15
Markus Prinz$1,500
07/16
Zhenghao Yan_$1,500
07/17
Markus Prinz$1,500
07/18
Ronald_Reagan$1,500
07/19
Dio Cane$1,500
07/20
Markus Prinz$1,500
07/21
Markus Prinz$1,500
07/22
Zhenghao Yan_$1,500
07/23
TripM_DoubleD$1,500
07/24
Playername$1,500
07/25
Playername$1,500
07/26
Playername$1,500
07/27
Playername$1,500
07/28
Playername$1,500
07/29
Playername$1,500
Playername

系列时间表

日期 UTC 活动 买入 GTD
7 月 7 日 星期天 12:30 215 美元周日赏金大放送 $215 $35,000
7 月 7 日 星期天 12:30 25 美元周日赏金大放送 $25 $100,000
7 月 7 日 星期天 13:30 10.80 美元周日赏金七人最高奖 $10.80 $50,000
7 月 7 日 星期天 13:30 108 美元周日悬赏七人最高奖金 $108 $70,000
7 月 7 日 星期天 14:05 $10 Speed Racer POWER HOUR [10 BB) $10 $12,500
7 月 7 日 星期天 14:15 $25 Speed Racer POWER HOUR [10 BB) $25 $12,500
7 月 7 日 星期天 14:25 $50 Speed Racer POWER HOUR [10 BB] $50 $12,500
7 月 7 日 星期天 14:30 840 美元周日赏金热身赛 HR $840 $75,000
7 月 7 日 星期天 14:30 88 美元周日赏金热身赛 $88 $175,000
7 月 7 日 星期天 14:35 $100 Speed Racer POWER HOUR [10 BB] $100 $10,000
7 月 7 日 星期天 14:45 $200 Speed Racer POWER HOUR [10 BB] $200 $12,500
7 月 7 日 星期天 15:30 44 美元周日赏金四十叠 $44 $200,000
7 月 7 日 星期天 16:30 525 美元赏金猎人 HR 主赛事,100 万美元 GTD $525 $1,000,000
7 月 7 日 星期天 16:30 54 美元赏金猎人周日主赛 $54 $500,000
7 月 7 日 星期天 17:30 215 美元周日赏金大游戏 $215 $350,000
7 月 7 日 星期天 17:30 21.60 美元 周日赏金大游戏 $21.60 $200,000
7 月 7 日 星期天 17:40 215 美元 周日奥马霍利大型游戏 $215 $50,000
7 月 7 日 星期天 19:00 1,050 美元周日 HR 主赛事 [赏金版] $1,050 $300,000
7 月 7 日 星期天 19:30 320 美元 GGMasters Bounty 特别版 $320 $400,000
7 月 7 日 星期天 19:30 32 美元 周日赏金王 $32 $175,000
7 月 7 日 星期天 19:40 1,050 美元周日奥马霍利赏金 HR $1,050 $50,000
7 月 7 日 星期天 19:40 150 美元周日奥马霍利丰收主食 $150 $100,000
7 月 7 日 星期天 20:00 108 美元周日对决 [神秘赏金] $108 $400,000
7 月 7 日 星期天 20:00 $15 迷你对决 [神秘赏金] $15 $250,000
7 月 7 日 星期天 21:00 1,050 美元 周日加热器 HR [赏金涡轮增压] 奖金 $1,050 $75,000
7 月 7 日 星期天 21:00 215 美元周日加热器 [赏金涡轮增压] 奖金 $215 $125,000
7 月 7 日 星期天 21:00 25美元周日迷你加热器[赏金特快] $25 $100,000
7 月 7 日 星期天 22:30 77 美元幸运十七[赏金特快] $77 $125,000
7 月 7 日 星期天 23:30 215 美元 周日最后通牒 [赏金超值] $215 $60,000
7 月 8 日 星期一 0:00 88 美元 午夜疯狂 [赏金超值] $88 $40,000
7 月 8 日 星期一 1:05 $10 Speed Racer POWER HOUR [10 BB) $10 $5,000
7 月 8 日 星期一 1:15 $25 Speed Racer POWER HOUR [10 BB) $25 $7,000
7 月 8 日 星期一 1:25 $50 Speed Racer POWER HOUR [10 BB] $50 $6,000
7 月 8 日 星期一 1:35 $100 Speed Racer POWER HOUR [10 BB] $100 $7,000
7 月 8 日 星期一 1:45 $200 Speed Racer POWER HOUR [10 BB] $200 $7,000
7 月 8 日 星期一 12:30 25 美元赏金大放送 $25 $50,000
7 月 8 日 星期一 13:30 10.80 美元 周一宿醉 [可变级别] $10.80 $30,000
7 月 8 日 星期一 14:05 $10 Speed Racer POWER HOUR [10 BB) $10 $12,500
7 月 8 日 星期一 14:15 $25 Speed Racer POWER HOUR [10 BB) $25 $12,500
7 月 8 日 星期一 14:25 $50 Speed Racer POWER HOUR [10 BB] $50 $12,500
7 月 8 日 星期一 14:30 88 美元赏金热身 $88 $60,000
7 月 8 日 星期一 14:35 $100 Speed Racer POWER HOUR [10 BB] $100 $10,000
7 月 8 日 星期一 14:45 $200 Speed Racer POWER HOUR [10 BB] $200 $12,500
7 月 8 日 星期一 15:30 44 美元赏金四十叠 $44 $80,000
7 月 8 日 星期一 16:30 525 美元 赏金猎人 HR [6-最高限额] $525 $300,000
7 月 8 日 星期一 16:30 54美元赏金猎人每日主赛[6-最大值] $54 $250,000
7 月 8 日 星期一 17:30 215 美元赏金大游戏 $215 $150,000
7 月 8 日 星期一 17:30 25 美元赏金大型游戏 $25 $100,000
7 月 8 日 星期一 18:00 1,050 美元的 "周一怪物堆栈 HR"(赏金版] $1,050 $200,000
7 月 8 日 星期一 18:00 150 美元星期一怪兽堆叠 [赏金版] $150 $150,000
7 月 8 日 星期一 18:00 15 美元迷你周一怪物堆叠 [赏金版] $15 $75,000
7 月 8 日 星期一 19:30 32 美元 赏金王 $32 $70,000
7 月 8 日 星期一 19:40 525 美元奥马霍利赏金五十叠 $525 $12,500
7 月 8 日 星期一 19:40 54 美元奥马霍利赏金五十叠 $54 $15,000
7 月 8 日 星期一 21:00 215 美元每日加热器 [赏金特快] $215 $50,000
7 月 8 日 星期一 22:00 66 美元超级六人组 [Bounty Turbo] $66 $40,000
7 月 8 日 星期一 22:30 25美元超5-最大 $25 $25,000
7 月 9 日 星期二 0:00 88 美元 午夜疯狂 [赏金超值] $88 $40,000
7 月 9 日 星期二 1:05 $10 Speed Racer POWER HOUR [10 BB) $10 $5,000
7 月 9 日 星期二 1:15 $25 Speed Racer POWER HOUR [10 BB) $25 $7,000
7 月 9 日 星期二 1:25 $50 Speed Racer POWER HOUR [10 BB] $50 $6,000
7 月 9 日 星期二 1:35 $100 Speed Racer POWER HOUR [10 BB] $100 $7,000
7 月 9 日 星期二 1:45 $200 Speed Racer POWER HOUR [10 BB] $200 $7,000
7 月 9 日 星期二 13:30 10.80 美元 《赏金猎人》6-Max $10.80 $35,000
7 月 9 日 星期二 14:05 $10 Speed Racer POWER HOUR [10 BB) $10 $12,500
7 月 9 日 星期二 14:15 $25 Speed Racer POWER HOUR [10 BB) $25 $12,500
7 月 9 日 星期二 14:25 $50 Speed Racer POWER HOUR [10 BB] $50 $12,500
7 月 9 日 星期二 14:35 $100 Speed Racer POWER HOUR [10 BB] $100 $10,000
7 月 9 日 星期二 14:45 $200 Speed Racer POWER HOUR [10 BB] $200 $12,500
7 月 9 日 星期二 16:30 525 美元赏金猎人 HR [深堆] $525 $200,000
7 月 9 日 星期二 16:30 54 美元赏金猎人每日主赛[深盘] $54 $250,000
7 月 9 日 星期二 18:00 1,050 美元 星期二经典 HR [赏金版] $1,050 $150,000
7 月 9 日 星期二 18:00 150美元星期二经典版[赏金版] $150 $200,000
7 月 9 日 星期二 18:00 15美元迷你星期二经典版[赏金版] $15 $85,000
7月10日 星期三 1:05 $10 Speed Racer POWER HOUR [10 BB) $10 $5,000
7月10日 星期三 1:15 $25 Speed Racer POWER HOUR [10 BB) $25 $7,000
7月10日 星期三 1:25 $50 Speed Racer POWER HOUR [10 BB] $50 $6,000
7月10日 星期三 1:35 $100 Speed Racer POWER HOUR [10 BB] $100 $7,000
7月10日 星期三 1:45 $200 Speed Racer POWER HOUR [10 BB] $200 $7,000
7月10日 星期三 13:30 10.80 美元 《赏金猎人》6-Max $10.80 $35,000
7月10日 星期三 14:05 $10 Speed Racer POWER HOUR [10 BB) $10 $12,500
7月10日 星期三 14:15 $25 Speed Racer POWER HOUR [10 BB) $25 $12,500
7月10日 星期三 14:25 $50 Speed Racer POWER HOUR [10 BB] $50 $12,500
7月10日 星期三 14:35 $100 Speed Racer POWER HOUR [10 BB] $100 $10,000
7月10日 星期三 14:45 $200 Speed Racer POWER HOUR [10 BB] $200 $12,500
7月10日 星期三 16:30 525 美元《赏金猎人 HR》[双叠] $525 $200,000
7月10日 星期三 16:30 54 美元《赏金猎人》每日主菜单[双叠] $54 $250,000
7月10日 星期三 18:00 价值 1,050 美元的 "星期三奇妙盒 HR"[神秘赏金] $1,050 $200,000
7月10日 星期三 18:00 150 美元的 "星期三奇妙信箱"【神秘赏金 $150 $400,000
7月10日 星期三 18:00 $15 迷你星期三奇妙礼盒 [神秘赏金] $15 $200,000
7月11日 星期四 1:05 $10 Speed Racer POWER HOUR [10 BB) $10 $5,000
7月11日 星期四 1:15 $25 Speed Racer POWER HOUR [10 BB) $25 $7,000
7月11日 星期四 1:25 $50 Speed Racer POWER HOUR [10 BB] $50 $6,000
7月11日 星期四 1:35 $100 Speed Racer POWER HOUR [10 BB] $100 $7,000
7月11日 星期四 1:45 $200 Speed Racer POWER HOUR [10 BB] $200 $7,000
7月11日 星期四 13:30 10.80 美元 《赏金猎人》6-Max $10.80 $35,000
7月11日 星期四 14:05 $10 Speed Racer POWER HOUR [10 BB) $10 $12,500
7月11日 星期四 14:15 $25 Speed Racer POWER HOUR [10 BB) $25 $12,500
7月11日 星期四 14:25 $50 Speed Racer POWER HOUR [10 BB] $50 $12,500
7月11日 星期四 14:35 $100 Speed Racer POWER HOUR [10 BB] $100 $10,000
7月11日 星期四 14:45 $200 Speed Racer POWER HOUR [10 BB] $200 $12,500
7月11日 星期四 16:30 赏金猎人 HR [经典] 525 美元 $525 $300,000
7月11日 星期四 16:30 $54 赏金猎人每日主赛 [经典] $54 $250,000
7月11日 星期四 18:00 1,050 美元 周四巅峰对决 HR $1,050 $300,000
7月11日 星期四 18:00 150 美元星期四对决 $150 $200,000
7月11日 星期四 18:00 15 美元迷你周四对决 $15 $85,000
7月12日 星期五 1:05 $10 Speed Racer POWER HOUR [10 BB) $10 $5,000
7月12日 星期五 1:15 $25 Speed Racer POWER HOUR [10 BB) $25 $7,000
7月12日 星期五 1:25 $50 Speed Racer POWER HOUR [10 BB] $50 $6,000
7月12日 星期五 1:35 $100 Speed Racer POWER HOUR [10 BB] $100 $7,000
7月12日 星期五 1:45 $200 Speed Racer POWER HOUR [10 BB] $200 $7,000
7月12日 星期五 13:30 10.80 美元 《狂怒星期五》5 最高奖金 $10.80 $30,000
7月12日 星期五 14:05 $10 Speed Racer POWER HOUR [10 BB) $10 $12,500
7月12日 星期五 14:15 $25 Speed Racer POWER HOUR [10 BB) $25 $12,500
7月12日 星期五 14:25 $50 Speed Racer POWER HOUR [10 BB] $50 $12,500
7月12日 星期五 14:35 $100 Speed Racer POWER HOUR [10 BB] $100 $10,000
7月12日 星期五 14:45 $200 Speed Racer POWER HOUR [10 BB] $200 $12,500
7月12日 星期五 16:30 赏金猎人 HR [Ultradeep Turbo] 525 美元 $525 $100,000
7月12日 星期五 16:30 54 美元赏金猎人每日主赛 [超深度涡轮增压赛] $54 $150,000
7月12日 星期五 18:00 1,050 美元 周五夜战 HR [6-最高限额] $1,050 $150,000
7月12日 星期五 18:00 150 美元周五夜战 [6-最高限额] $150 $125,000
7月12日 星期五 18:00 15 美元迷你周五夜战 [6-最高限额] $15 $75,000
7月13日 星期六 1:05 $10 Speed Racer POWER HOUR [10 BB) $10 $5,000
7月13日 星期六 1:15 $25 Speed Racer POWER HOUR [10 BB) $25 $7,000
7月13日 星期六 1:25 $50 Speed Racer POWER HOUR [10 BB] $50 $6,000
7月13日 星期六 1:35 $100 Speed Racer POWER HOUR [10 BB] $100 $7,000
7月13日 星期六 1:45 $200 Speed Racer POWER HOUR [10 BB] $200 $7,000
7月13日 星期六 13:30 10.80 美元 星期六对决 7 大奖 $10.80 $40,000
7月13日 星期六 14:05 $10 Speed Racer POWER HOUR [10 BB) $10 $12,500
7月13日 星期六 14:15 $25 Speed Racer POWER HOUR [10 BB) $25 $12,500
7月13日 星期六 14:25 $50 Speed Racer POWER HOUR [10 BB] $50 $12,500
7月13日 星期六 14:35 $100 Speed Racer POWER HOUR [10 BB] $100 $10,000
7月13日 星期六 14:45 $200 Speed Racer POWER HOUR [10 BB] $200 $12,500
7月13日 星期六 16:30 赏金猎人 HR [大赏金] 525 美元 $525 $200,000
7月13日 星期六 16:30 $54 赏金猎人每日主线 [大赏金] $54 $250,000
7月13日 星期六 18:00 1,050 美元周六秘密 KO HR [神秘赏金] $1,050 $250,000
7月13日 星期六 18:00 150 美元 星期六秘密 KO [神秘赏金] $150 $500,000
7月13日 星期六 18:00 15 美元迷你星期六秘密 KO [神秘赏金] $15 $250,000
7月14日 星期天 1:05 $10 Speed Racer POWER HOUR [10 BB) $10 $5,000
7月14日 星期天 1:15 $25 Speed Racer POWER HOUR [10 BB) $25 $7,000
7月14日 星期天 1:25 $50 Speed Racer POWER HOUR [10 BB] $50 $6,000
7月14日 星期天 1:35 $100 Speed Racer POWER HOUR [10 BB] $100 $7,000
7月14日 星期天 1:45 $200 Speed Racer POWER HOUR [10 BB] $200 $7,000
7月14日 星期天 12:30 215 美元周日赏金大放送 $215 $35,000
7月14日 星期天 12:30 25 美元周日赏金大放送 $25 $100,000
7月14日 星期天 13:30 10.80 美元周日赏金七人最高奖 $10.80 $50,000
7月14日 星期天 13:30 108 美元周日悬赏七人最高奖金 $108 $70,000
7月14日 星期天 14:05 $10 Speed Racer POWER HOUR [10 BB) $10 $12,500
7月14日 星期天 14:15 $25 Speed Racer POWER HOUR [10 BB) $25 $12,500
7月14日 星期天 14:25 $50 Speed Racer POWER HOUR [10 BB] $50 $12,500
7月14日 星期天 14:30 840 美元周日赏金热身赛 HR $840 $75,000
7月14日 星期天 14:30 88 美元周日赏金热身赛 $88 $175,000
7月14日 星期天 14:35 $100 Speed Racer POWER HOUR [10 BB] $100 $10,000
7月14日 星期天 14:45 $200 Speed Racer POWER HOUR [10 BB] $200 $12,500
7月14日 星期天 15:30 44 美元周日赏金四十叠 $44 $200,000
7月14日 星期天 16:30 525 美元赏金猎人 HR 主赛事,100 万美元 GTD $525 $1,000,000
7月14日 星期天 16:30 54 美元赏金猎人周日主赛 $54 $500,000
7月14日 星期天 17:30 215 美元周日赏金大游戏 $215 $350,000
7月14日 星期天 17:30 21.60 美元 周日赏金大游戏 $21.60 $200,000
7月14日 星期天 17:40 215 美元 周日奥马霍利大型游戏 $215 $50,000
7月14日 星期天 19:00 1,050 美元周日 HR 主赛事 [赏金版] $1,050 $300,000
7月14日 星期天 19:30 320 美元 GGMasters Bounty 特别版 $320 $400,000
7月14日 星期天 19:30 32 美元 周日赏金王 $32 $175,000
7月14日 星期天 19:40 1,050 美元周日奥马霍利赏金 HR $1,050 $50,000
7月14日 星期天 19:40 150 美元周日奥马霍利丰收主食 $150 $100,000
7月14日 星期天 20:00 108 美元周日对决 [神秘赏金] $108 $400,000
7月14日 星期天 20:00 $15 迷你对决 [神秘赏金] $15 $250,000
7月14日 星期天 21:00 1,050 美元 周日加热器 HR [赏金涡轮增压] 奖金 $1,050 $75,000
7月14日 星期天 21:00 215 美元周日加热器 [赏金涡轮增压] 奖金 $215 $125,000
7月14日 星期天 21:00 25美元周日迷你加热器[赏金特快] $25 $100,000
7月14日 星期天 22:30 77 美元幸运十七[赏金特快] $77 $125,000
7月14日 星期天 23:30 215 美元 周日最后通牒 [赏金超值] $215 $60,000
7月15日 星期一 0:00 88 美元 午夜疯狂 [赏金超值] $88 $40,000
7月15日 星期一 1:05 $10 Speed Racer POWER HOUR [10 BB) $10 $5,000
7月15日 星期一 1:15 $25 Speed Racer POWER HOUR [10 BB) $25 $7,000
7月15日 星期一 1:25 $50 Speed Racer POWER HOUR [10 BB] $50 $6,000
7月15日 星期一 1:35 $100 Speed Racer POWER HOUR [10 BB] $100 $7,000
7月15日 星期一 1:45 $200 Speed Racer POWER HOUR [10 BB] $200 $7,000
7月15日 星期一 12:30 25 美元赏金大放送 $25 $50,000
7月15日 星期一 13:30 10.80 美元 周一宿醉 [可变级别] $10.80 $30,000
7月15日 星期一 14:05 $10 Speed Racer POWER HOUR [10 BB) $10 $12,500
7月15日 星期一 14:15 $25 Speed Racer POWER HOUR [10 BB) $25 $12,500
7月15日 星期一 14:25 $50 Speed Racer POWER HOUR [10 BB] $50 $12,500
7月15日 星期一 14:30 88 美元赏金热身 $88 $60,000
7月15日 星期一 14:35 $100 Speed Racer POWER HOUR [10 BB] $100 $10,000
7月15日 星期一 14:45 $200 Speed Racer POWER HOUR [10 BB] $200 $12,500
7月15日 星期一 15:30 44 美元赏金四十叠 $44 $80,000
7月15日 星期一 16:30 525 美元 赏金猎人 HR [6-最高限额] $525 $300,000
7月15日 星期一 16:30 54美元赏金猎人每日主赛[6-最大值] $54 $250,000
7月15日 星期一 17:30 215 美元赏金大游戏 $215 $150,000
7月15日 星期一 17:30 25 美元赏金大型游戏 $25 $100,000
7月15日 星期一 18:00 1,050 美元的 "周一怪物堆栈 HR"(赏金版] $1,050 $200,000
7月15日 星期一 18:00 150 美元星期一怪兽堆叠 [赏金版] $150 $150,000
7月15日 星期一 18:00 15 美元迷你周一怪物堆叠 [赏金版] $15 $75,000
7月15日 星期一 19:30 32 美元 赏金王 $32 $70,000
7月15日 星期一 19:40 525 美元奥马霍利赏金五十叠 $525 $12,500
7月15日 星期一 19:40 54 美元奥马霍利赏金五十叠 $54 $15,000
7月15日 星期一 21:00 215 美元每日加热器 [赏金特快] $215 $50,000
7月15日 星期一 22:00 66 美元超级六人组 [Bounty Turbo] $66 $40,000
7月15日 星期一 22:30 25美元超5-最大 $25 $25,000
7月16日 星期二 0:00 88 美元 午夜疯狂 [赏金超值] $88 $40,000
7月16日 星期二 1:05 $10 Speed Racer POWER HOUR [10 BB) $10 $5,000
7月16日 星期二 1:15 $25 Speed Racer POWER HOUR [10 BB) $25 $7,000
7月16日 星期二 1:25 $50 Speed Racer POWER HOUR [10 BB] $50 $6,000
7月16日 星期二 1:35 $100 Speed Racer POWER HOUR [10 BB] $100 $7,000
7月16日 星期二 1:45 $200 Speed Racer POWER HOUR [10 BB] $200 $7,000
7月16日 星期二 13:30 10.80 美元 《赏金猎人》6-Max $10.80 $35,000
7月16日 星期二 14:05 $10 Speed Racer POWER HOUR [10 BB) $10 $12,500
7月16日 星期二 14:15 $25 Speed Racer POWER HOUR [10 BB) $25 $12,500
7月16日 星期二 14:25 $50 Speed Racer POWER HOUR [10 BB] $50 $12,500
7月16日 星期二 14:35 $100 Speed Racer POWER HOUR [10 BB] $100 $10,000
7月16日 星期二 14:45 $200 Speed Racer POWER HOUR [10 BB] $200 $12,500
7月16日 星期二 16:30 525 美元赏金猎人 HR [深堆] $525 $200,000
7月16日 星期二 16:30 54 美元赏金猎人每日主赛[深盘] $54 $250,000
7月16日 星期二 18:00 1,050 美元 星期二经典 HR [赏金版] $1,050 $150,000
7月16日 星期二 18:00 150美元星期二经典版[赏金版] $150 $200,000
7月16日 星期二 18:00 15美元迷你星期二经典版[赏金版] $15 $85,000
7月17日 星期三 1:05 $10 Speed Racer POWER HOUR [10 BB) $10 $5,000
7月17日 星期三 1:15 $25 Speed Racer POWER HOUR [10 BB) $25 $7,000
7月17日 星期三 1:25 $50 Speed Racer POWER HOUR [10 BB] $50 $6,000
7月17日 星期三 1:35 $100 Speed Racer POWER HOUR [10 BB] $100 $7,000
7月17日 星期三 1:45 $200 Speed Racer POWER HOUR [10 BB] $200 $7,000
7月17日 星期三 13:30 10.80 美元 《赏金猎人》6-Max $10.80 $35,000
7月17日 星期三 14:05 $10 Speed Racer POWER HOUR [10 BB) $10 $12,500
7月17日 星期三 14:15 $25 Speed Racer POWER HOUR [10 BB) $25 $12,500
7月17日 星期三 14:25 $50 Speed Racer POWER HOUR [10 BB] $50 $12,500
7月17日 星期三 14:35 $100 Speed Racer POWER HOUR [10 BB] $100 $10,000
7月17日 星期三 14:45 $200 Speed Racer POWER HOUR [10 BB] $200 $12,500
7月17日 星期三 16:30 525 美元《赏金猎人 HR》[双叠] $525 $200,000
7月17日 星期三 16:30 54 美元《赏金猎人》每日主菜单[双叠] $54 $250,000
7月17日 星期三 18:00 价值 1,050 美元的 "星期三奇妙盒 HR"[神秘赏金] $1,050 $200,000
7月17日 星期三 18:00 150 美元的 "星期三奇妙信箱"【神秘赏金 $150 $400,000
7月17日 星期三 18:00 $15 迷你星期三奇妙礼盒 [神秘赏金] $15 $200,000
7月18日 星期四 1:05 $10 Speed Racer POWER HOUR [10 BB) $10 $5,000
7月18日 星期四 1:15 $25 Speed Racer POWER HOUR [10 BB) $25 $7,000
7月18日 星期四 1:25 $50 Speed Racer POWER HOUR [10 BB] $50 $6,000
7月18日 星期四 1:35 $100 Speed Racer POWER HOUR [10 BB] $100 $7,000
7月18日 星期四 1:45 $200 Speed Racer POWER HOUR [10 BB] $200 $7,000
7月18日 星期四 13:30 10.80 美元 《赏金猎人》6-Max $10.80 $35,000
7月18日 星期四 14:05 $10 Speed Racer POWER HOUR [10 BB) $10 $12,500
7月18日 星期四 14:15 $25 Speed Racer POWER HOUR [10 BB) $25 $12,500
7月18日 星期四 14:25 $50 Speed Racer POWER HOUR [10 BB] $50 $12,500
7月18日 星期四 14:35 $100 Speed Racer POWER HOUR [10 BB] $100 $10,000
7月18日 星期四 14:45 $200 Speed Racer POWER HOUR [10 BB] $200 $12,500
7月18日 星期四 16:30 赏金猎人 HR [经典] 525 美元 $525 $300,000
7月18日 星期四 16:30 $54 赏金猎人每日主赛 [经典] $54 $250,000
7月18日 星期四 18:00 1,050 美元 周四巅峰对决 HR $1,050 $300,000
7月18日 星期四 18:00 150 美元星期四对决 $150 $200,000
7月18日 星期四 18:00 15 美元迷你周四对决 $15 $85,000
7月19日 星期五 1:05 $10 Speed Racer POWER HOUR [10 BB) $10 $5,000
7月19日 星期五 1:15 $25 Speed Racer POWER HOUR [10 BB) $25 $7,000
7月19日 星期五 1:25 $50 Speed Racer POWER HOUR [10 BB] $50 $6,000
7月19日 星期五 1:35 $100 Speed Racer POWER HOUR [10 BB] $100 $7,000
7月19日 星期五 1:45 $200 Speed Racer POWER HOUR [10 BB] $200 $7,000
7月19日 星期五 13:30 10.80 美元 《狂怒星期五》5 最高奖金 $10.80 $30,000
7月19日 星期五 14:05 $10 Speed Racer POWER HOUR [10 BB) $10 $12,500
7月19日 星期五 14:15 $25 Speed Racer POWER HOUR [10 BB) $25 $12,500
7月19日 星期五 14:25 $50 Speed Racer POWER HOUR [10 BB] $50 $12,500
7月19日 星期五 14:35 $100 Speed Racer POWER HOUR [10 BB] $100 $10,000
7月19日 星期五 14:45 $200 Speed Racer POWER HOUR [10 BB] $200 $12,500
7月19日 星期五 16:30 赏金猎人 HR [Ultradeep Turbo] 525 美元 $525 $100,000
7月19日 星期五 16:30 54 美元赏金猎人每日主赛 [超深度涡轮增压赛] $54 $150,000
7月19日 星期五 18:00 1,050 美元 周五夜战 HR [6-最高限额] $1,050 $150,000
7月19日 星期五 18:00 150 美元周五夜战 [6-最高限额] $150 $125,000
7月19日 星期五 18:00 15 美元迷你周五夜战 [6-最高限额] $15 $75,000
7月20日 星期六 1:05 $10 Speed Racer POWER HOUR [10 BB) $10 $5,000
7月20日 星期六 1:15 $25 Speed Racer POWER HOUR [10 BB) $25 $7,000
7月20日 星期六 1:25 $50 Speed Racer POWER HOUR [10 BB] $50 $6,000
7月20日 星期六 1:35 $100 Speed Racer POWER HOUR [10 BB] $100 $7,000
7月20日 星期六 1:45 $200 Speed Racer POWER HOUR [10 BB] $200 $7,000
7月20日 星期六 13:30 10.80 美元 星期六对决 7 大奖 $10.80 $40,000
7月20日 星期六 14:05 $10 Speed Racer POWER HOUR [10 BB) $10 $12,500
7月20日 星期六 14:15 $25 Speed Racer POWER HOUR [10 BB) $25 $12,500
7月20日 星期六 14:25 $50 Speed Racer POWER HOUR [10 BB] $50 $12,500
7月20日 星期六 14:35 $100 Speed Racer POWER HOUR [10 BB] $100 $10,000
7月20日 星期六 14:45 $200 Speed Racer POWER HOUR [10 BB] $200 $12,500
7月20日 星期六 16:30 赏金猎人 HR [大赏金] 525 美元 $525 $200,000
7月20日 星期六 16:30 $54 赏金猎人每日主线 [大赏金] $54 $250,000
7月20日 星期六 18:00 1,050 美元周六秘密 KO HR [神秘赏金] $1,050 $250,000
7月20日 星期六 18:00 150 美元 星期六秘密 KO [神秘赏金] $150 $500,000
7月20日 星期六 18:00 15 美元迷你星期六秘密 KO [神秘赏金] $15 $250,000
7月21日 星期天 1:05 $10 Speed Racer POWER HOUR [10 BB) $10 $5,000
7月21日 星期天 1:15 $25 Speed Racer POWER HOUR [10 BB) $25 $7,000
7月21日 星期天 1:25 $50 Speed Racer POWER HOUR [10 BB] $50 $6,000
7月21日 星期天 1:35 $100 Speed Racer POWER HOUR [10 BB] $100 $7,000
7月21日 星期天 1:45 $200 Speed Racer POWER HOUR [10 BB] $200 $7,000
7月21日 星期天 12:30 215 美元周日赏金大放送 $215 $35,000
7月21日 星期天 12:30 25 美元周日赏金大放送 $25 $100,000
7月21日 星期天 13:30 10.80 美元周日赏金七人最高奖 $10.80 $50,000
7月21日 星期天 13:30 108 美元周日悬赏七人最高奖金 $108 $70,000
7月21日 星期天 14:05 $10 Speed Racer POWER HOUR [10 BB) $10 $12,500
7月21日 星期天 14:15 $25 Speed Racer POWER HOUR [10 BB) $25 $12,500
7月21日 星期天 14:25 $50 Speed Racer POWER HOUR [10 BB] $50 $12,500
7月21日 星期天 14:30 840 美元周日赏金热身赛 HR $840 $75,000
7月21日 星期天 14:30 88 美元周日赏金热身赛 $88 $175,000
7月21日 星期天 14:35 $100 Speed Racer POWER HOUR [10 BB] $100 $10,000
7月21日 星期天 14:45 $200 Speed Racer POWER HOUR [10 BB] $200 $12,500
7月21日 星期天 15:30 44 美元周日赏金四十叠 $44 $200,000
7月21日 星期天 16:30 525 美元赏金猎人 HR 主赛事,100 万美元 GTD $525 $1,000,000
7月21日 星期天 16:30 54 美元赏金猎人周日主赛 $54 $500,000
7月21日 星期天 17:30 215 美元周日赏金大游戏 $215 $350,000
7月21日 星期天 17:30 21.60 美元 周日赏金大游戏 $21.60 $200,000
7月21日 星期天 17:40 215 美元 周日奥马霍利大型游戏 $215 $50,000
7月21日 星期天 19:00 1,050 美元周日 HR 主赛事 [赏金版] $1,050 $300,000
7月21日 星期天 19:30 320 美元 GGMasters Bounty 特别版 $320 $400,000
7月21日 星期天 19:30 32 美元 周日赏金王 $32 $175,000
7月21日 星期天 19:40 1,050 美元周日奥马霍利赏金 HR $1,050 $50,000
7月21日 星期天 19:40 150 美元周日奥马霍利丰收主食 $150 $100,000
7月21日 星期天 20:00 108 美元周日对决 [神秘赏金] $108 $400,000
7月21日 星期天 20:00 $15 迷你对决 [神秘赏金] $15 $250,000
7月21日 星期天 20:30 全球百万美元赏金版,100万美元GTD [最后阶段] $50 $1,000,000
7月21日 星期天 21:00 1,050 美元 周日加热器 HR [赏金涡轮增压] 奖金 $1,050 $75,000
7月21日 星期天 21:00 215 美元周日加热器 [赏金涡轮增压] 奖金 $215 $125,000
7月21日 星期天 21:00 25美元周日迷你加热器[赏金特快] $25 $100,000
7月21日 星期天 22:30 77 美元幸运十七[赏金特快] $77 $125,000
7月21日 星期天 23:30 215 美元 周日最后通牒 [赏金超值] $215 $60,000
7月22日 星期一 0:00 88 美元 午夜疯狂 [赏金超值] $88 $40,000
7月22日 星期一 1:05 $10 Speed Racer POWER HOUR [10 BB) $10 $5,000
7月22日 星期一 1:15 $25 Speed Racer POWER HOUR [10 BB) $25 $7,000
7月22日 星期一 1:25 $50 Speed Racer POWER HOUR [10 BB] $50 $6,000
7月22日 星期一 1:35 $100 Speed Racer POWER HOUR [10 BB] $100 $7,000
7月22日 星期一 1:45 $200 Speed Racer POWER HOUR [10 BB] $200 $7,000
7月22日 星期一 12:30 25 美元赏金大放送 $25 $50,000
7月22日 星期一 13:30 10.80 美元 周一宿醉 [可变级别] $10.80 $30,000
7月22日 星期一 14:05 $10 Speed Racer POWER HOUR [10 BB) $10 $12,500
7月22日 星期一 14:15 $25 Speed Racer POWER HOUR [10 BB) $25 $12,500
7月22日 星期一 14:25 $50 Speed Racer POWER HOUR [10 BB] $50 $12,500
7月22日 星期一 14:30 88 美元赏金热身 $88 $60,000
7月22日 星期一 14:35 $100 Speed Racer POWER HOUR [10 BB] $100 $10,000
7月22日 星期一 14:45 $200 Speed Racer POWER HOUR [10 BB] $200 $12,500
7月22日 星期一 15:30 44 美元赏金四十叠 $44 $80,000
7月22日 星期一 16:30 525 美元 赏金猎人 HR [6-最高限额] $525 $300,000
7月22日 星期一 16:30 54美元赏金猎人每日主赛[6-最大值] $54 $250,000
7月22日 星期一 17:30 215 美元赏金大游戏 $215 $150,000
7月22日 星期一 17:30 25 美元赏金大型游戏 $25 $100,000
7月22日 星期一 18:00 1,050 美元的 "周一怪物堆栈 HR"(赏金版] $1,050 $200,000
7月22日 星期一 18:00 150 美元星期一怪兽堆叠 [赏金版] $150 $150,000
7月22日 星期一 18:00 15 美元迷你周一怪物堆叠 [赏金版] $15 $75,000
7月22日 星期一 19:30 32 美元 赏金王 $32 $70,000
7月22日 星期一 19:40 525 美元奥马霍利赏金五十叠 $525 $12,500
7月22日 星期一 19:40 54 美元奥马霍利赏金五十叠 $54 $15,000
7月22日 星期一 21:00 215 美元每日加热器 [赏金特快] $215 $50,000
7月22日 星期一 22:00 66 美元超级六人组 [Bounty Turbo] $66 $40,000
7月22日 星期一 22:30 25美元超5-最大 $25 $25,000
7月23日 星期二 0:00 88 美元 午夜疯狂 [赏金超值] $88 $40,000
7月23日 星期二 1:05 $10 Speed Racer POWER HOUR [10 BB) $10 $5,000
7月23日 星期二 1:15 $25 Speed Racer POWER HOUR [10 BB) $25 $7,000
7月23日 星期二 1:25 $50 Speed Racer POWER HOUR [10 BB] $50 $6,000
7月23日 星期二 1:35 $100 Speed Racer POWER HOUR [10 BB] $100 $7,000
7月23日 星期二 1:45 $200 Speed Racer POWER HOUR [10 BB] $200 $7,000
7月23日 星期二 13:30 10.80 美元 《赏金猎人》6-Max $10.80 $35,000
7月23日 星期二 14:05 $10 Speed Racer POWER HOUR [10 BB) $10 $12,500
7月23日 星期二 14:15 $25 Speed Racer POWER HOUR [10 BB) $25 $12,500
7月23日 星期二 14:25 $50 Speed Racer POWER HOUR [10 BB] $50 $12,500
7月23日 星期二 14:35 $100 Speed Racer POWER HOUR [10 BB] $100 $10,000
7月23日 星期二 14:45 $200 Speed Racer POWER HOUR [10 BB] $200 $12,500
7月23日 星期二 16:30 525 美元赏金猎人 HR [深堆] $525 $200,000
7月23日 星期二 16:30 54 美元赏金猎人每日主赛[深盘] $54 $250,000
7月23日 星期二 18:00 1,050 美元 星期二经典 HR [赏金版] $1,050 $150,000
7月23日 星期二 18:00 150美元星期二经典版[赏金版] $150 $200,000
7月23日 星期二 18:00 15美元迷你星期二经典版[赏金版] $15 $85,000
7月24日 星期三 1:05 $10 Speed Racer POWER HOUR [10 BB) $10 $5,000
7月24日 星期三 1:15 $25 Speed Racer POWER HOUR [10 BB) $25 $7,000
7月24日 星期三 1:25 $50 Speed Racer POWER HOUR [10 BB] $50 $6,000
7月24日 星期三 1:35 $100 Speed Racer POWER HOUR [10 BB] $100 $7,000
7月24日 星期三 1:45 $200 Speed Racer POWER HOUR [10 BB] $200 $7,000
7月24日 星期三 13:30 10.80 美元 《赏金猎人》6-Max $10.80 $35,000
7月24日 星期三 14:05 $10 Speed Racer POWER HOUR [10 BB) $10 $12,500
7月24日 星期三 14:15 $25 Speed Racer POWER HOUR [10 BB) $25 $12,500
7月24日 星期三 14:25 $50 Speed Racer POWER HOUR [10 BB] $50 $12,500
7月24日 星期三 14:35 $100 Speed Racer POWER HOUR [10 BB] $100 $10,000
7月24日 星期三 14:45 $200 Speed Racer POWER HOUR [10 BB] $200 $12,500
7月24日 星期三 16:30 525 美元《赏金猎人 HR》[双叠] $525 $200,000
7月24日 星期三 16:30 54 美元《赏金猎人》每日主菜单[双叠] $54 $250,000
7月24日 星期三 18:00 价值 1,050 美元的 "星期三奇妙盒 HR"[神秘赏金] $1,050 $200,000
7月24日 星期三 18:00 150 美元的 "星期三奇妙信箱"【神秘赏金 $150 $400,000
7月24日 星期三 18:00 $15 迷你星期三奇妙礼盒 [神秘赏金] $15 $200,000
7月25日 星期四 1:05 $10 Speed Racer POWER HOUR [10 BB) $10 $5,000
7月25日 星期四 1:15 $25 Speed Racer POWER HOUR [10 BB) $25 $7,000
7月25日 星期四 1:25 $50 Speed Racer POWER HOUR [10 BB] $50 $6,000
7月25日 星期四 1:35 $100 Speed Racer POWER HOUR [10 BB] $100 $7,000
7月25日 星期四 1:45 $200 Speed Racer POWER HOUR [10 BB] $200 $7,000
7月25日 星期四 13:30 10.80 美元 《赏金猎人》6-Max $10.80 $35,000
7月25日 星期四 14:05 $10 Speed Racer POWER HOUR [10 BB) $10 $12,500
7月25日 星期四 14:15 $25 Speed Racer POWER HOUR [10 BB) $25 $12,500
7月25日 星期四 14:25 $50 Speed Racer POWER HOUR [10 BB] $50 $12,500
7月25日 星期四 14:35 $100 Speed Racer POWER HOUR [10 BB] $100 $10,000
7月25日 星期四 14:45 $200 Speed Racer POWER HOUR [10 BB] $200 $12,500
7月25日 星期四 16:30 赏金猎人 HR [经典] 525 美元 $525 $300,000
7月25日 星期四 16:30 $54 赏金猎人每日主赛 [经典] $54 $250,000
7月25日 星期四 18:00 1,050 美元 周四巅峰对决 HR $1,050 $300,000
7月25日 星期四 18:00 150 美元星期四对决 $150 $200,000
7月25日 星期四 18:00 15 美元迷你周四对决 $15 $85,000
7月26日 星期五 1:05 $10 Speed Racer POWER HOUR [10 BB) $10 $5,000
7月26日 星期五 1:15 $25 Speed Racer POWER HOUR [10 BB) $25 $7,000
7月26日 星期五 1:25 $50 Speed Racer POWER HOUR [10 BB] $50 $6,000
7月26日 星期五 1:35 $100 Speed Racer POWER HOUR [10 BB] $100 $7,000
7月26日 星期五 1:45 $200 Speed Racer POWER HOUR [10 BB] $200 $7,000
7月26日 星期五 13:30 10.80 美元 《狂怒星期五》5 最高奖金 $10.80 $30,000
7月26日 星期五 14:05 $10 Speed Racer POWER HOUR [10 BB) $10 $12,500
7月26日 星期五 14:15 $25 Speed Racer POWER HOUR [10 BB) $25 $12,500
7月26日 星期五 14:25 $50 Speed Racer POWER HOUR [10 BB] $50 $12,500
7月26日 星期五 14:35 $100 Speed Racer POWER HOUR [10 BB] $100 $10,000
7月26日 星期五 14:45 $200 Speed Racer POWER HOUR [10 BB] $200 $12,500
7月26日 星期五 16:30 赏金猎人 HR [Ultradeep Turbo] 525 美元 $525 $100,000
7月26日 星期五 16:30 54 美元赏金猎人每日主赛 [超深度涡轮增压赛] $54 $150,000
7月26日 星期五 18:00 1,050 美元 周五夜战 HR [6-最高限额] $1,050 $150,000
7月26日 星期五 18:00 150 美元周五夜战 [6-最高限额] $150 $125,000
7月26日 星期五 18:00 15 美元迷你周五夜战 [6-最高限额] $15 $75,000
7月27日 星期六 1:05 $10 Speed Racer POWER HOUR [10 BB) $10 $5,000
7月27日 星期六 1:15 $25 Speed Racer POWER HOUR [10 BB) $25 $7,000
7月27日 星期六 1:25 $50 Speed Racer POWER HOUR [10 BB] $50 $6,000
7月27日 星期六 1:35 $100 Speed Racer POWER HOUR [10 BB] $100 $7,000
7月27日 星期六 1:45 $200 Speed Racer POWER HOUR [10 BB] $200 $7,000
7月27日 星期六 13:30 10.80 美元 星期六对决 7 大奖 $10.80 $40,000
7月27日 星期六 14:05 $10 Speed Racer POWER HOUR [10 BB) $10 $12,500
7月27日 星期六 14:15 $25 Speed Racer POWER HOUR [10 BB) $25 $12,500
7月27日 星期六 14:25 $50 Speed Racer POWER HOUR [10 BB] $50 $12,500
7月27日 星期六 14:35 $100 Speed Racer POWER HOUR [10 BB] $100 $10,000
7月27日 星期六 14:45 $200 Speed Racer POWER HOUR [10 BB] $200 $12,500
7月27日 星期六 16:30 赏金猎人 HR [大赏金] 525 美元 $525 $200,000
7月27日 星期六 16:30 $54 赏金猎人每日主线 [大赏金] $54 $250,000
7月27日 星期六 18:00 1,050 美元周六秘密 KO HR [神秘赏金] $1,050 $250,000
7月27日 星期六 18:00 150 美元 星期六秘密 KO [神秘赏金] $150 $500,000
7月27日 星期六 18:00 15 美元迷你星期六秘密 KO [神秘赏金] $15 $250,000
7月28日 星期天 1:05 $10 Speed Racer POWER HOUR [10 BB) $10 $5,000
7月28日 星期天 1:15 $25 Speed Racer POWER HOUR [10 BB) $25 $7,000
7月28日 星期天 1:25 $50 Speed Racer POWER HOUR [10 BB] $50 $6,000
7月28日 星期天 1:35 $100 Speed Racer POWER HOUR [10 BB] $100 $7,000
7月28日 星期天 1:45 $200 Speed Racer POWER HOUR [10 BB] $200 $7,000
7月28日 星期天 12:30 215 美元周日赏金大放送 $215 $35,000
7月28日 星期天 12:30 25 美元周日赏金大放送 $25 $100,000
7月28日 星期天 13:30 10.80 美元周日赏金七人最高奖 $10.80 $50,000
7月28日 星期天 13:30 108 美元周日悬赏七人最高奖金 $108 $70,000
7月28日 星期天 14:05 $10 Speed Racer POWER HOUR [10 BB) $10 $12,500
7月28日 星期天 14:15 $25 Speed Racer POWER HOUR [10 BB) $25 $12,500
7月28日 星期天 14:25 $50 Speed Racer POWER HOUR [10 BB] $50 $12,500
7月28日 星期天 14:30 840 美元周日赏金热身赛 HR $840 $75,000
7月28日 星期天 14:30 88 美元周日赏金热身赛 $88 $175,000
7月28日 星期天 14:35 $100 Speed Racer POWER HOUR [10 BB] $100 $10,000
7月28日 星期天 14:45 $200 Speed Racer POWER HOUR [10 BB] $200 $12,500
7月28日 星期天 15:30 44 美元周日赏金四十叠 $44 $200,000
7月28日 星期天 16:30 525 美元赏金猎人 HR 主赛事,100 万美元 GTD $525 $1,000,000
7月28日 星期天 16:30 54 美元赏金猎人周日主赛 $54 $500,000
7月28日 星期天 17:30 215 美元周日赏金大游戏 $215 $350,000
7月28日 星期天 17:30 21.60 美元 周日赏金大游戏 $21.60 $200,000
7月28日 星期天 17:40 215 美元 周日奥马霍利大型游戏 $215 $50,000
7月28日 星期天 19:00 1,050 美元周日 HR 主赛事 [赏金版] $1,050 $300,000
7月28日 星期天 19:30 320 美元 GGMasters Bounty 特别版 $320 $400,000
7月28日 星期天 19:30 32 美元 周日赏金王 $32 $175,000
7月28日 星期天 19:40 1,050 美元周日奥马霍利赏金 HR $1,050 $50,000
7月28日 星期天 19:40 150 美元周日奥马霍利丰收主食 $150 $100,000
7月28日 星期天 20:00 108 美元周日对决 [神秘赏金] $108 $400,000
7月28日 星期天 20:00 $15 迷你对决 [神秘赏金] $15 $250,000
7月28日 星期天 21:00 1,050 美元 周日加热器 HR [赏金涡轮增压] 奖金 $1,050 $75,000
7月28日 星期天 21:00 215 美元周日加热器 [赏金涡轮增压] 奖金 $215 $125,000
7月28日 星期天 21:00 25美元周日迷你加热器[赏金特快] $25 $100,000
7月28日 星期天 22:30 77 美元幸运十七[赏金特快] $77 $125,000
7月28日 星期天 23:30 215 美元 周日最后通牒 [赏金超值] $215 $60,000
7月29日 星期一 0:00 88 美元 午夜疯狂 [赏金超值] $88 $40,000
7月29日 星期一 1:05 $10 Speed Racer POWER HOUR [10 BB) $10 $5,000
7月29日 星期一 1:15 $25 Speed Racer POWER HOUR [10 BB) $25 $7,000
7月29日 星期一 1:25 $50 Speed Racer POWER HOUR [10 BB] $50 $6,000
7月29日 星期一 1:35 $100 Speed Racer POWER HOUR [10 BB] $100 $7,000
7月29日 星期一 1:45 $200 Speed Racer POWER HOUR [10 BB] $200 $7,000
7月29日 星期一 12:30 25 美元赏金大放送 $25 $50,000
7月29日 星期一 13:30 10.80 美元 周一宿醉 [可变级别] $10.80 $30,000
7月29日 星期一 14:05 $10 Speed Racer POWER HOUR [10 BB) $10 $12,500
7月29日 星期一 14:15 $25 Speed Racer POWER HOUR [10 BB) $25 $12,500
7月29日 星期一 14:25 $50 Speed Racer POWER HOUR [10 BB] $50 $12,500
7月29日 星期一 14:30 88 美元赏金热身 $88 $60,000
7月29日 星期一 14:35 $100 Speed Racer POWER HOUR [10 BB] $100 $10,000
7月29日 星期一 14:45 $200 Speed Racer POWER HOUR [10 BB] $200 $12,500
7月29日 星期一 15:30 44 美元赏金四十叠 $44 $80,000
7月29日 星期一 16:30 525 美元 赏金猎人 HR [6-最高限额] $525 $300,000
7月29日 星期一 16:30 54美元赏金猎人每日主赛[6-最大值] $54 $250,000
7月29日 星期一 17:30 215 美元赏金大游戏 $215 $150,000
7月29日 星期一 17:30 25 美元赏金大型游戏 $25 $100,000
7月29日 星期一 18:00 1,050 美元的 "周一怪物堆栈 HR"(赏金版] $1,050 $200,000
7月29日 星期一 18:00 150 美元星期一怪兽堆叠 [赏金版] $150 $150,000
7月29日 星期一 18:00 15 美元迷你周一怪物堆叠 [赏金版] $15 $75,000
7月29日 星期一 18:30 神秘百万美元主赛事,400 万美元 GTD [第 2 天] $108 $4,000,000
7月29日 星期一 19:30 32 美元 赏金王 $32 $70,000
7月29日 星期一 19:40 525 美元奥马霍利赏金五十叠 $525 $12,500
7月29日 星期一 19:40 54 美元奥马霍利赏金五十叠 $54 $15,000
7月29日 星期一 21:00 215 美元每日加热器 [赏金特快] $215 $50,000
7月29日 星期一 22:00 66 美元超级六人组 [Bounty Turbo] $66 $40,000
7月29日 星期一 22:30 25美元超5-最大 $25 $25,000
7月30日 星期二 0:00 88 美元 午夜疯狂 [赏金超值] $88 $40,000
7月30日 星期二 1:05 $10 Speed Racer POWER HOUR [10 BB) $10 $5,000
7月30日 星期二 1:15 $25 Speed Racer POWER HOUR [10 BB) $25 $7,000
7月30日 星期二 1:25 $50 Speed Racer POWER HOUR [10 BB] $50 $6,000
7月30日 星期二 1:35 $100 Speed Racer POWER HOUR [10 BB] $100 $7,000
7月30日 星期二 1:45 $200 Speed Racer POWER HOUR [10 BB] $200 $7,000

锦标赛的细节和限制

  • 赏金王每日排行榜的运行时间为 06:00:00 - 05:59:59(世界协调时)。
  • 积分只能在赏金猎人系列锦标赛期间获得。
  • 如果积分榜上出现并列情况,先达到总积分的选手将获胜。如果选手积分仍然相同,下一个决定因素将是达到总积分的比赛结束时间。

条款和条件
  • 参赛选手必须年满 18 周岁、19 周岁、21 周岁或 24 周岁(视辖区而定)。
  • 请注意,任何奖池或担保都可能发生变化,本网站上列出的一些金额可能不是最新的。请检查游戏客户端中列出的保证金额,以获得最新的信息。
  • 我们保留在任何时候修改或暂停任何促销、锦标赛或游戏功能的权利。
  • 如果任何玩家被怀疑有欺诈行为,我们有权进行调查,并在确认后将其删除。
  • 这些条款和条件受网站条款和条件的约束,可以在游戏客户端找到。
标准规则适用。
赌博会让你付出什么代价?及时停止,负责任地玩www.begambleaware.org|RO| DE(BZGA|BUWEI) |BE|FI|UK|PH